Time;durP1;ratioP1;P1;durP2;ratioP2;P2;SDS_P1;SDS_P2;PMS_P1;PMS_P2;Temp;Humidity;BMP_temperature;BMP_pressure;BME280_temperature;BME280_humidity;BME280_pressure;Samples;Min_cycle;Max_cycle;Signal;HPM_P1;HPM_P2
2023/12/24 00:02:10;;;;;;;6.57;0.70;;;11.50;99.90;;;;;;5055640;28;20029;-70
2023/12/24 00:04:36;;;;;;;6.43;1.15;;;11.60;99.90;;;;;;5058618;28;20032;-71
2023/12/24 00:07:01;;;;;;;6.38;0.90;;;11.60;99.90;;;;;;5060113;28;20358;-72
2023/12/24 00:09:27;;;;;;;4.20;0.80;;;11.60;99.90;;;;;;5060127;28;20089;-70
2023/12/24 00:11:53;;;;;;;5.65;0.85;;;11.70;99.90;;;;;;5075975;28;20116;-71
2023/12/24 00:14:19;;;;;;;3.67;0.75;;;11.60;99.90;;;;;;5060082;28;20036;-71
2023/12/24 00:16:44;;;;;;;3.35;0.80;;;11.70;99.90;;;;;;5059282;28;20451;-71
2023/12/24 00:19:10;;;;;;;4.35;0.70;;;11.80;99.90;;;;;;5059707;28;20036;-71
2023/12/24 00:21:36;;;;;;;3.30;0.65;;;11.80;99.90;;;;;;5059836;28;20040;-70
2023/12/24 00:24:02;;;;;;;1.73;0.60;;;11.70;99.90;;;;;;5059153;28;20120;-70
2023/12/24 00:26:28;;;;;;;5.20;0.70;;;11.80;99.90;;;;;;5059808;28;20033;-67
2023/12/24 00:28:53;;;;;;;5.93;0.85;;;11.70;99.90;;;;;;5059611;28;20053;-70
2023/12/24 00:31:19;;;;;;;5.28;0.90;;;11.70;99.90;;;;;;5075741;28;20033;-70
2023/12/24 00:33:45;;;;;;;3.53;0.90;;;11.70;99.90;;;;;;5059803;28;20029;-67
2023/12/24 00:36:11;;;;;;;4.05;0.63;;;11.70;99.90;;;;;;5059632;28;20021;-67
2023/12/24 00:38:37;;;;;;;3.60;0.60;;;11.70;99.90;;;;;;5059598;28;20044;-64
2023/12/24 00:41:03;;;;;;;2.67;0.80;;;11.60;99.90;;;;;;5058747;28;20037;-63
2023/12/24 00:43:29;;;;;;;3.85;0.60;;;11.60;99.90;;;;;;5059522;28;20044;-67
2023/12/24 00:45:54;;;;;;;3.88;0.90;;;11.50;99.90;;;;;;5059538;28;20297;-71
2023/12/24 00:48:20;;;;;;;3.83;0.65;;;11.60;99.90;;;;;;5058606;28;20049;-65
2023/12/24 00:50:46;;;;;;;6.40;0.85;;;11.60;99.90;;;;;;5059462;28;20053;-71
2023/12/24 00:53:12;;;;;;;3.50;0.73;;;11.60;99.90;;;;;;5059216;28;20029;-69
2023/12/24 00:55:39;;;;;;;3.63;0.90;;;11.70;99.90;;;;;;5058696;28;20460;-68
2023/12/24 00:58:05;;;;;;;5.80;0.98;;;11.60;99.90;;;;;;5059114;28;20063;-68
2023/12/24 01:00:31;;;;;;;4.47;0.70;;;11.40;99.90;;;;;;5075168;28;20427;-65
2023/12/24 01:02:57;;;;;;;5.03;0.65;;;11.40;99.90;;;;;;5075023;28;20079;-68
2023/12/24 01:05:23;;;;;;;1.30;0.57;;;11.30;99.90;;;;;;5059124;28;20444;-67
2023/12/24 01:07:49;;;;;;;4.50;0.55;;;11.30;99.90;;;;;;5058748;28;20033;-67
2023/12/24 01:10:15;;;;;;;1.75;0.70;;;11.40;99.90;;;;;;5074927;28;20029;-71
2023/12/24 01:12:42;;;;;;;2.33;0.70;;;11.30;99.90;;;;;;5058931;28;20025;-69
2023/12/24 01:15:08;;;;;;;5.43;0.90;;;11.40;99.90;;;;;;5058768;28;20037;-66
2023/12/24 01:17:34;;;;;;;2.83;0.77;;;11.40;99.90;;;;;;5058041;28;20086;-70
2023/12/24 01:20:00;;;;;;;2.78;0.60;;;11.40;99.90;;;;;;5074724;28;20037;-70
2023/12/24 01:22:26;;;;;;;6.03;0.90;;;11.40;99.90;;;;;;5074675;28;20021;-69
2023/12/24 01:24:52;;;;;;;3.13;0.80;;;11.40;99.90;;;;;;5058762;28;20025;-69
2023/12/24 01:27:18;;;;;;;4.68;0.68;;;11.50;99.90;;;;;;5058698;28;20021;-68
2023/12/24 01:29:44;;;;;;;2.45;0.88;;;11.60;99.90;;;;;;5057630;28;20320;-65
2023/12/24 01:32:09;;;;;;;1.27;0.55;;;11.50;99.90;;;;;;5074469;28;20066;-67
2023/12/24 01:34:35;;;;;;;3.42;0.80;;;11.60;99.90;;;;;;5041206;28;20029;-70
2023/12/24 01:37:01;;;;;;;3.35;0.82;;;11.60;99.90;;;;;;5041346;28;20033;-69
2023/12/24 01:39:27;;;;;;;5.38;1.02;;;11.60;99.90;;;;;;5057726;28;20025;-68
2023/12/24 01:41:53;;;;;;;3.28;0.82;;;11.60;99.90;;;;;;5041215;28;20036;-69
2023/12/24 01:44:18;;;;;;;2.00;0.80;;;11.50;99.90;;;;;;5058300;28;20354;-67
2023/12/24 01:46:45;;;;;;;3.75;0.90;;;11.60;99.90;;;;;;5074463;28;20040;-65
2023/12/24 01:49:13;;;;;;;2.50;0.60;;;11.40;99.90;;;;;;5058201;28;20029;-65
2023/12/24 01:51:39;;;;;;;3.75;0.70;;;11.40;99.90;;;;;;5074214;28;20025;-66
2023/12/24 01:54:06;;;;;;;4.70;0.80;;;11.30;99.90;;;;;;5057456;28;20029;-68
2023/12/24 01:56:32;;;;;;;3.17;0.63;;;11.20;99.90;;;;;;5058308;28;20119;-68
2023/12/24 01:58:59;;;;;;;3.28;0.70;;;11.00;99.90;;;;;;5073911;28;20116;-66
2023/12/24 02:01:26;;;;;;;3.50;0.60;;;11.00;99.90;;;;;;5057196;28;20049;-68
2023/12/24 02:03:52;;;;;;;4.65;0.70;;;10.90;99.90;;;;;;5057948;28;20091;-66
2023/12/24 02:06:19;;;;;;;1.88;0.70;;;10.80;99.90;;;;;;5057925;28;20120;-69
2023/12/24 02:08:45;;;;;;;2.08;0.70;;;10.80;99.90;;;;;;5057048;28;20308;-69
2023/12/24 02:11:11;;;;;;;1.50;0.70;;;10.90;99.90;;;;;;5040624;28;20029;-67
2023/12/24 02:13:37;;;;;;;3.22;0.55;;;10.90;99.90;;;;;;5040568;28;20041;-65
2023/12/24 02:16:05;;;;;;;3.30;0.60;;;10.80;99.90;;;;;;5073667;28;20378;-64
2023/12/24 02:18:32;;;;;;;2.58;0.95;;;10.70;99.90;;;;;;5057650;28;20036;-63
2023/12/24 02:21:02;;;;;;;1.58;0.52;;;10.70;99.90;;;;;;5073716;28;20028;-63
2023/12/24 02:23:28;;;;;;;2.40;0.70;;;10.70;99.90;;;;;;5057570;28;20093;-60
2023/12/24 02:26:00;;;;;;;3.22;0.70;;;10.70;99.90;;;;;;5057409;28;20044;-63
2023/12/24 02:28:28;;;;;;;0.98;0.50;;;10.80;99.90;;;;;;5057410;28;20048;-60
2023/12/24 02:31:01;;;;;;;1.10;0.47;;;10.80;99.90;;;;;;5057403;28;20060;-67
2023/12/24 02:33:30;;;;;;;2.65;0.95;;;10.80;99.90;;;;;;5056699;28;20024;-60
2023/12/24 02:35:59;;;;;;;2.33;0.70;;;10.90;99.90;;;;;;5073273;28;20120;-60
2023/12/24 02:38:25;;;;;;;2.38;0.65;;;10.80;99.90;;;;;;5057283;28;20040;-60
2023/12/24 02:40:51;;;;;;;2.00;0.77;;;10.60;99.90;;;;;;5057362;28;20368;-60
2023/12/24 02:43:16;;;;;;;2.28;0.70;;;10.60;99.90;;;;;;5057228;28;20098;-61
2023/12/24 02:45:44;;;;;;;1.60;0.50;;;10.60;99.90;;;;;;5057280;28;20124;-61
2023/12/24 02:48:11;;;;;;;4.45;0.50;;;10.60;99.90;;;;;;5056412;28;20044;-63
2023/12/24 02:50:36;;;;;;;1.80;0.57;;;10.50;99.90;;;;;;5057250;28;20026;-62
2023/12/24 02:53:02;;;;;;;2.20;0.63;;;10.50;99.90;;;;;;5056417;28;20116;-62
2023/12/24 02:55:28;;;;;;;1.52;0.50;;;10.40;99.90;;;;;;5056463;28;20102;-62
2023/12/24 02:57:54;;;;;;;1.38;0.60;;;10.40;99.90;;;;;;5056313;28;20300;-62
2023/12/24 03:00:20;;;;;;;1.58;0.65;;;10.40;99.90;;;;;;5056204;28;20033;-59
2023/12/24 03:02:46;;;;;;;2.33;0.60;;;10.30;99.90;;;;;;5057160;28;20033;-61
2023/12/24 03:05:12;;;;;;;0.90;0.50;;;10.30;99.90;;;;;;5056190;28;20458;-60
2023/12/24 03:07:37;;;;;;;0.60;0.30;;;10.40;99.90;;;;;;5056868;28;20029;-60
2023/12/24 03:10:04;;;;;;;1.35;0.25;;;10.40;99.90;;;;;;5056921;28;20028;-61
2023/12/24 03:12:29;;;;;;;3.35;0.50;;;10.40;99.90;;;;;;5056876;28;20033;-61
2023/12/24 03:14:55;;;;;;;0.55;0.20;;;10.40;99.90;;;;;;5056905;28;20124;-59
2023/12/24 03:17:21;;;;;;;1.83;0.45;;;10.40;99.90;;;;;;5056826;28;20029;-60
2023/12/24 03:19:47;;;;;;;1.55;0.30;;;10.40;99.90;;;;;;5056784;28;20171;-61
2023/12/24 03:22:13;;;;;;;3.00;0.43;;;10.40;99.90;;;;;;5055992;28;20108;-58
2023/12/24 03:24:39;;;;;;;0.38;0.30;;;10.30;99.90;;;;;;5056130;28;20068;-60
2023/12/24 03:27:04;;;;;;;1.23;0.30;;;10.30;99.90;;;;;;5056793;28;20300;-60
2023/12/24 03:29:30;;;;;;;1.35;0.30;;;10.20;99.90;;;;;;5056303;28;20480;-58
2023/12/24 03:31:56;;;;;;;1.55;0.40;;;10.30;99.90;;;;;;5056535;28;20083;-60
2023/12/24 03:34:22;;;;;;;1.55;0.30;;;10.30;99.90;;;;;;5056554;28;20036;-59
2023/12/24 03:36:47;;;;;;;1.25;0.20;;;10.30;99.90;;;;;;5056602;28;20052;-59
2023/12/24 03:39:14;;;;;;;0.63;0.30;;;10.30;99.90;;;;;;5058221;28;20040;-59
2023/12/24 03:41:41;;;;;;;0.30;0.22;;;10.40;99.90;;;;;;5060696;28;20029;-58
2023/12/24 03:44:07;;;;;;;1.08;0.20;;;10.40;99.90;;;;;;5060540;28;20055;-59
2023/12/24 03:46:33;;;;;;;1.13;0.43;;;10.50;99.90;;;;;;5060528;28;20040;-60
2023/12/24 03:48:59;;;;;;;0.80;0.30;;;10.40;99.90;;;;;;5042857;28;20033;-60
2023/12/24 03:51:25;;;;;;;1.58;0.30;;;10.50;99.90;;;;;;5060399;28;20091;-58
2023/12/24 03:53:51;;;;;;;1.05;0.20;;;10.40;99.90;;;;;;5059574;28;20037;-58
2023/12/24 03:56:17;;;;;;;0.70;0.25;;;10.50;99.90;;;;;;5059767;28;20036;-60
2023/12/24 03:58:43;;;;;;;1.02;0.30;;;10.60;99.90;;;;;;5060395;28;20041;-59
2023/12/24 04:01:09;;;;;;;1.65;0.40;;;10.60;99.90;;;;;;5059732;28;20072;-59
2023/12/24 04:03:37;;;;;;;0.68;0.30;;;10.60;99.90;;;;;;5060302;28;20033;-60
2023/12/24 04:06:13;;;;;;;1.35;0.38;;;10.60;99.90;;;;;;5059517;28;20040;-58
2023/12/24 04:08:39;;;;;;;2.10;0.30;;;10.60;99.90;;;;;;5060144;28;20044;-58
2023/12/24 04:11:15;;;;;;;1.50;0.40;;;10.60;99.90;;;;;;5060180;28;20028;-59
2023/12/24 04:13:41;;;;;;;1.35;0.40;;;10.60;99.90;;;;;;5059342;28;20388;-57
2023/12/24 04:16:08;;;;;;;2.58;0.52;;;10.60;99.90;;;;;;5060168;28;20173;-61
2023/12/24 04:18:34;;;;;;;0.95;0.30;;;10.50;99.90;;;;;;5059341;28;20051;-59
2023/12/24 04:21:00;;;;;;;0.90;0.35;;;10.60;99.90;;;;;;5059972;28;20460;-58
2023/12/24 04:23:26;;;;;;;0.80;0.20;;;10.50;99.90;;;;;;5059115;28;20033;-61
2023/12/24 04:25:52;;;;;;;1.63;0.40;;;10.60;99.90;;;;;;5075731;28;20045;-58
2023/12/24 04:28:18;;;;;;;0.82;0.30;;;10.60;99.90;;;;;;5058908;28;20309;-60
2023/12/24 04:30:44;;;;;;;0.77;0.30;;;10.60;99.90;;;;;;5059645;28;20412;-60
2023/12/24 04:33:10;;;;;;;2.35;0.22;;;10.70;99.90;;;;;;5059593;28;20049;-63
2023/12/24 04:35:36;;;;;;;1.30;0.40;;;10.70;99.90;;;;;;5075559;28;20159;-63
2023/12/24 04:38:02;;;;;;;1.92;0.40;;;10.70;99.90;;;;;;5059695;28;20321;-56
2023/12/24 04:40:28;;;;;;;0.80;0.40;;;10.70;99.90;;;;;;5058839;28;20307;-60
2023/12/24 04:42:54;;;;;;;2.63;0.50;;;10.70;99.90;;;;;;5058743;28;20150;-62
2023/12/24 04:45:20;;;;;;;2.33;0.70;;;10.70;99.90;;;;;;5059441;28;20312;-59
2023/12/24 04:47:46;;;;;;;3.45;0.50;;;10.70;99.90;;;;;;5059354;28;20040;-58
2023/12/24 04:50:12;;;;;;;5.05;0.80;;;10.70;99.90;;;;;;5058872;28;20072;-62
2023/12/24 04:52:38;;;;;;;1.10;0.57;;;10.70;99.90;;;;;;5058707;28;20322;-60
2023/12/24 04:55:05;;;;;;;2.70;0.65;;;10.80;99.90;;;;;;5058494;28;20025;-56
2023/12/24 04:57:31;;;;;;;1.88;0.57;;;10.80;99.90;;;;;;5075150;28;20021;-59
2023/12/24 04:59:57;;;;;;;2.95;0.75;;;10.70;99.90;;;;;;5058465;28;20036;-61
2023/12/24 05:02:23;;;;;;;3.95;0.88;;;10.70;99.90;;;;;;5058268;28;20416;-61
2023/12/24 05:04:50;;;;;;;3.20;0.93;;;10.80;99.90;;;;;;5059092;28;20462;-60
2023/12/24 05:07:16;;;;;;;3.80;0.77;;;10.90;99.90;;;;;;5059069;28;20041;-56
2023/12/24 05:09:42;;;;;;;3.95;0.77;;;10.80;99.90;;;;;;5041597;28;20029;-57
2023/12/24 05:12:08;;;;;;;3.30;0.85;;;10.80;99.90;;;;;;5059025;28;20029;-59
2023/12/24 05:14:35;;;;;;;7.00;1.23;;;10.80;99.90;;;;;;5059123;28;20304;-58
2023/12/24 05:17:02;;;;;;;4.72;0.90;;;10.80;99.90;;;;;;5058094;28;20033;-61
2023/12/24 05:19:28;;;;;;;5.28;0.93;;;10.90;99.90;;;;;;5059004;28;20044;-61
2023/12/24 05:21:54;;;;;;;4.07;0.70;;;10.90;99.90;;;;;;5058820;28;20108;-60
2023/12/24 05:24:20;;;;;;;2.60;1.02;;;10.90;99.90;;;;;;5058052;28;20235;-59
2023/12/24 05:26:46;;;;;;;4.22;1.15;;;10.90;99.90;;;;;;5057907;28;20033;-58
2023/12/24 05:29:12;;;;;;;5.68;1.00;;;10.90;99.90;;;;;;5058384;28;20071;-60
2023/12/24 05:31:42;;;;;;;3.88;0.80;;;10.90;99.90;;;;;;5058612;28;20045;-61
2023/12/24 05:34:08;;;;;;;4.70;1.00;;;11.00;99.90;;;;;;5058524;28;20288;-62
2023/12/24 05:36:35;;;;;;;3.58;0.90;;;11.00;99.90;;;;;;5058838;28;20017;-61
2023/12/24 05:39:02;;;;;;;2.70;0.90;;;11.00;99.90;;;;;;5058704;28;20423;-60
2023/12/24 05:41:28;;;;;;;4.63;0.80;;;11.00;99.90;;;;;;5057656;28;20408;-60
2023/12/24 05:43:54;;;;;;;6.20;1.15;;;10.90;99.90;;;;;;5058316;28;20100;-60
2023/12/24 05:46:22;;;;;;;5.88;0.95;;;11.00;99.90;;;;;;5058281;28;20351;-60
2023/12/24 05:48:48;;;;;;;6.20;0.88;;;11.00;99.90;;;;;;5057674;28;20384;-58
2023/12/24 05:51:15;;;;;;;6.90;1.00;;;11.00;99.90;;;;;;5058277;28;20021;-60
2023/12/24 05:53:40;;;;;;;4.30;0.93;;;11.00;99.90;;;;;;5057439;28;20029;-58
2023/12/24 05:56:06;;;;;;;6.20;1.08;;;11.00;99.90;;;;;;5058156;28;20033;-58
2023/12/24 05:58:32;;;;;;;3.35;0.80;;;10.90;99.90;;;;;;5058053;28;20032;-60
2023/12/24 06:00:58;;;;;;;3.35;0.90;;;11.00;99.90;;;;;;5073406;28;20461;-61
2023/12/24 06:03:25;;;;;;;3.83;1.00;;;11.00;99.90;;;;;;5057723;28;20389;-57
2023/12/24 06:05:51;;;;;;;3.47;0.85;;;10.90;99.90;;;;;;5057966;28;20036;-62
2023/12/24 06:08:17;;;;;;;5.28;0.73;;;10.90;99.90;;;;;;5057603;28;20041;-58
2023/12/24 06:10:43;;;;;;;4.28;0.77;;;10.90;99.90;;;;;;5057892;28;20407;-60
2023/12/24 06:13:10;;;;;;;2.67;0.63;;;10.90;99.90;;;;;;5057039;28;20048;-60
2023/12/24 06:15:35;;;;;;;2.38;0.70;;;11.00;99.90;;;;;;5073615;28;20025;-60
2023/12/24 06:18:01;;;;;;;2.97;0.80;;;11.00;99.90;;;;;;5056899;28;20032;-59
2023/12/24 06:20:31;;;;;;;3.40;0.88;;;11.00;99.90;;;;;;5057684;28;20090;-59
2023/12/24 06:22:56;;;;;;;2.78;0.65;;;10.80;99.90;;;;;;5057713;28;20371;-59
2023/12/24 06:25:22;;;;;;;1.98;0.60;;;10.80;99.90;;;;;;5057580;28;20105;-59
2023/12/24 06:27:48;;;;;;;0.47;0.30;;;10.80;99.90;;;;;;5057609;28;20045;-58
2023/12/24 06:30:14;;;;;;;2.80;0.68;;;10.80;99.90;;;;;;5057302;28;20297;-61
2023/12/24 06:32:44;;;;;;;2.33;0.50;;;11.00;99.90;;;;;;5057376;28;20131;-61
2023/12/24 06:35:10;;;;;;;2.47;0.57;;;10.90;99.90;;;;;;5040594;28;20079;-61
2023/12/24 06:37:36;;;;;;;2.03;0.45;;;10.90;99.90;;;;;;5057382;28;20035;-60
2023/12/24 06:40:03;;;;;;;2.13;0.50;;;10.90;99.90;;;;;;5057361;28;20033;-61
2023/12/24 06:42:29;;;;;;;2.03;0.40;;;10.90;99.90;;;;;;5057265;28;20036;-61
2023/12/24 06:44:55;;;;;;;0.88;0.40;;;11.00;99.90;;;;;;5057207;28;20038;-60
2023/12/24 06:47:21;;;;;;;1.25;0.40;;;11.00;99.90;;;;;;5057183;28;20035;-60
2023/12/24 06:49:47;;;;;;;1.00;0.40;;;11.00;99.90;;;;;;5056365;28;20068;-59
2023/12/24 06:52:13;;;;;;;1.75;0.30;;;10.90;99.90;;;;;;5057083;28;20060;-60
2023/12/24 06:54:38;;;;;;;1.85;0.75;;;10.90;99.90;;;;;;5072957;28;20317;-60
2023/12/24 06:57:07;;;;;;;2.92;0.47;;;10.90;99.90;;;;;;5057040;28;20029;-61
2023/12/24 06:59:33;;;;;;;1.05;0.30;;;10.80;99.90;;;;;;5057217;28;20109;-58
2023/12/24 07:01:59;;;;;;;0.60;0.30;;;10.80;99.90;;;;;;5056883;28;20116;-61
2023/12/24 07:04:25;;;;;;;1.40;0.40;;;10.80;99.90;;;;;;5056859;28;20045;-61
2023/12/24 07:06:51;;;;;;;1.38;0.38;;;10.80;99.90;;;;;;5056907;28;20278;-60
2023/12/24 07:09:17;;;;;;;0.80;0.40;;;10.80;99.90;;;;;;5055860;28;20033;-60
2023/12/24 07:11:43;;;;;;;0.82;0.30;;;10.90;99.90;;;;;;5056067;28;20036;-60
2023/12/24 07:14:08;;;;;;;1.23;0.30;;;10.90;99.90;;;;;;5072251;28;20400;-61
2023/12/24 07:16:34;;;;;;;1.48;0.50;;;11.00;99.90;;;;;;5056792;28;20033;-60
2023/12/24 07:19:05;;;;;;;1.65;0.50;;;10.90;99.90;;;;;;5056630;28;20043;-59
2023/12/24 07:21:31;;;;;;;1.10;0.50;;;10.90;99.90;;;;;;5056797;28;20052;-60
2023/12/24 07:23:57;;;;;;;1.45;0.40;;;10.90;99.90;;;;;;5056739;28;20043;-60
2023/12/24 07:26:23;;;;;;;1.15;0.40;;;10.90;99.90;;;;;;5072781;28;20108;-58
2023/12/24 07:28:49;;;;;;;2.33;0.60;;;11.00;99.90;;;;;;5056385;28;20037;-61
2023/12/24 07:31:14;;;;;;;1.17;0.50;;;11.10;99.90;;;;;;5056602;28;20044;-57
2023/12/24 07:33:41;;;;;;;2.20;0.60;;;11.00;99.90;;;;;;5056627;28;20124;-61
2023/12/24 07:36:07;;;;;;;1.58;0.40;;;11.00;99.90;;;;;;5056636;28;20021;-59
2023/12/24 07:38:33;;;;;;;1.95;0.50;;;11.00;99.90;;;;;;5055801;28;20047;-59
2023/12/24 07:40:58;;;;;;;2.03;0.70;;;11.00;99.90;;;;;;5056604;28;20400;-60
2023/12/24 07:43:24;;;;;;;2.17;0.60;;;11.00;99.90;;;;;;5056491;28;20033;-60
2023/12/24 07:45:50;;;;;;;0.85;0.68;;;11.10;99.90;;;;;;5056504;28;20131;-59
2023/12/24 07:48:16;;;;;;;1.95;0.70;;;11.10;99.90;;;;;;5056510;28;20061;-59
2023/12/24 07:50:43;;;;;;;1.02;0.68;;;11.00;99.90;;;;;;5055838;28;20060;-59
2023/12/24 07:53:09;;;;;;;2.83;0.65;;;11.10;99.90;;;;;;5055786;28;20029;-58
2023/12/24 07:55:34;;;;;;;1.75;0.90;;;11.10;99.90;;;;;;5056370;28;20029;-58
2023/12/24 07:58:00;;;;;;;1.85;0.80;;;11.00;99.90;;;;;;5056436;28;20304;-60
2023/12/24 08:00:26;;;;;;;3.47;0.80;;;11.00;99.90;;;;;;5055583;28;20037;-59
2023/12/24 08:02:52;;;;;;;1.33;1.00;;;11.10;99.90;;;;;;5056306;28;20021;-64
2023/12/24 08:05:18;;;;;;;2.67;0.80;;;11.10;99.90;;;;;;5056342;28;20040;-60
2023/12/24 08:07:43;;;;;;;3.83;0.82;;;11.10;99.90;;;;;;5056249;28;20040;-59
2023/12/24 08:10:10;;;;;;;2.63;0.80;;;11.10;99.90;;;;;;5055169;28;20045;-59
2023/12/24 08:12:35;;;;;;;2.22;1.08;;;11.20;99.90;;;;;;5056178;28;20380;-61
2023/12/24 08:15:02;;;;;;;3.17;1.05;;;11.20;99.90;;;;;;5071945;28;20047;-60
2023/12/24 08:17:27;;;;;;;2.60;1.00;;;11.30;99.90;;;;;;5055976;28;20033;-60
2023/12/24 08:19:54;;;;;;;2.90;0.90;;;11.30;99.90;;;;;;5056113;28;20043;-60
2023/12/24 08:22:20;;;;;;;2.05;1.00;;;11.30;99.90;;;;;;5055993;28;20110;-60
2023/12/24 08:24:46;;;;;;;2.17;1.10;;;11.40;99.90;;;;;;5057013;28;20048;-61
2023/12/24 08:27:12;;;;;;;3.55;1.10;;;11.40;99.90;;;;;;5059580;28;20075;-61
2023/12/24 08:29:38;;;;;;;1.85;0.77;;;11.50;99.90;;;;;;5059329;28;20144;-57
2023/12/24 08:32:04;;;;;;;4.43;1.00;;;11.40;99.90;;;;;;5059602;28;20059;-61
2023/12/24 08:34:30;;;;;;;4.57;1.48;;;11.50;99.90;;;;;;5059554;28;20044;-59
2023/12/24 08:36:56;;;;;;;2.33;0.82;;;11.50;99.90;;;;;;5059665;28;20029;-60
2023/12/24 08:39:21;;;;;;;2.58;0.80;;;11.50;99.90;;;;;;5059535;28;20025;-59
2023/12/24 08:41:47;;;;;;;2.60;1.20;;;11.40;99.90;;;;;;5059550;28;20451;-60
2023/12/24 08:44:13;;;;;;;1.95;1.20;;;11.40;99.90;;;;;;5059387;28;20082;-60
2023/12/24 08:46:41;;;;;;;4.03;1.30;;;11.40;99.90;;;;;;5075299;28;20123;-60
2023/12/24 08:49:08;;;;;;;3.25;1.38;;;11.40;99.90;;;;;;5058642;28;20033;-58
2023/12/24 08:51:33;;;;;;;3.55;1.63;;;11.50;99.90;;;;;;5059329;28;20033;-60
2023/12/24 08:53:59;;;;;;;3.58;1.60;;;11.40;99.90;;;;;;5075161;28;20029;-58
2023/12/24 08:56:25;;;;;;;4.90;1.70;;;11.40;99.90;;;;;;5059220;28;20059;-58
2023/12/24 08:58:51;;;;;;;3.28;1.60;;;11.40;99.90;;;;;;5059252;28;20060;-59
2023/12/24 09:01:17;;;;;;;2.72;1.38;;;11.40;99.90;;;;;;5059166;28;20032;-59
2023/12/24 09:03:43;;;;;;;7.82;1.90;;;11.30;99.90;;;;;;5059066;28;20396;-62
2023/12/24 09:06:08;;;;;;;3.28;1.98;;;11.40;99.90;;;;;;5059117;28;20274;-62
2023/12/24 09:08:34;;;;;;;5.53;2.10;;;11.40;99.90;;;;;;5058999;28;20110;-59
2023/12/24 09:11:00;;;;;;;6.15;2.28;;;11.60;99.90;;;;;;5058218;28;20379;-60
2023/12/24 09:13:26;;;;;;;6.13;2.00;;;11.60;99.90;;;;;;5059084;28;20075;-60
2023/12/24 09:15:52;;;;;;;7.38;2.22;;;11.60;99.90;;;;;;5058848;28;20094;-62
2023/12/24 09:18:18;;;;;;;7.68;2.95;;;11.60;99.90;;;;;;5058890;28;20029;-59
2023/12/24 09:20:43;;;;;;;4.60;2.50;;;11.60;99.90;;;;;;5074908;28;20048;-59
2023/12/24 09:23:09;;;;;;;6.70;2.63;;;11.60;99.90;;;;;;5058769;28;20155;-62
2023/12/24 09:25:35;;;;;;;6.40;2.85;;;11.60;99.90;;;;;;5058710;28;20304;-59
2023/12/24 09:28:01;;;;;;;6.72;2.90;;;11.60;99.90;;;;;;5057831;28;20048;-58
2023/12/24 09:30:26;;;;;;;9.65;3.50;;;11.60;99.90;;;;;;5058489;28;20116;-58
2023/12/24 09:32:52;;;;;;;7.63;2.70;;;11.60;99.90;;;;;;5057846;28;20059;-58
2023/12/24 09:35:18;;;;;;;6.10;2.90;;;11.50;99.90;;;;;;5074259;28;20389;-58
2023/12/24 09:37:44;;;;;;;6.05;2.25;;;11.60;99.90;;;;;;5057392;28;20065;-59
2023/12/24 09:40:10;;;;;;;8.15;2.60;;;11.60;99.90;;;;;;5058382;28;20301;-60
2023/12/24 09:42:37;;;;;;;6.47;2.85;;;11.70;99.90;;;;;;5074353;28;20025;-59
2023/12/24 09:45:03;;;;;;;5.22;2.85;;;11.70;99.90;;;;;;5058297;28;20033;-59
2023/12/24 09:47:29;;;;;;;12.65;3.35;;;11.70;99.90;;;;;;5058190;28;20037;-60
2023/12/24 09:49:55;;;;;;;8.35;3.22;;;11.60;99.90;;;;;;5058120;28;20098;-59
2023/12/24 09:52:22;;;;;;;5.40;2.63;;;11.60;99.90;;;;;;5058204;28;20024;-59
2023/12/24 09:54:48;;;;;;;9.60;3.20;;;11.60;99.90;;;;;;5074099;28;20036;-61
2023/12/24 09:57:14;;;;;;;9.80;3.28;;;11.80;99.90;;;;;;5058123;28;20033;-60
2023/12/24 09:59:40;;;;;;;7.10;2.80;;;11.80;99.90;;;;;;5073877;28;20043;-61
2023/12/24 10:02:05;;;;;;;5.95;2.42;;;11.80;99.90;;;;;;5057549;28;20097;-59
2023/12/24 10:04:31;;;;;;;6.05;2.80;;;11.80;99.90;;;;;;5058155;28;20056;-59
2023/12/24 10:06:58;;;;;;;8.60;2.88;;;11.80;99.90;;;;;;5057148;28;20040;-61
2023/12/24 10:09:46;;;;;;;4.20;2.58;;;11.80;99.90;;;;;;5057840;28;20064;-58
2023/12/24 10:12:12;;;;;;;5.63;2.17;;;11.80;99.90;;;;;;5057781;28;20399;-59
2023/12/24 10:14:39;;;;;;;7.68;2.40;;;11.80;99.90;;;;;;5057761;28;20293;-62
2023/12/24 10:17:06;;;;;;;7.80;2.65;;;11.80;99.90;;;;;;5057632;28;20040;-60
2023/12/24 10:19:32;;;;;;;7.00;2.10;;;11.80;99.90;;;;;;5057624;28;20047;-57
2023/12/24 10:22:06;;;;;;;4.43;2.03;;;11.80;99.90;;;;;;5057670;28;20039;-58
2023/12/24 10:24:35;;;;;;;5.05;2.00;;;11.80;99.90;;;;;;5057594;28;20128;-57
2023/12/24 10:27:19;;;;;;;6.70;1.80;;;11.70;99.90;;;;;;5057584;28;20057;-62
2023/12/24 10:29:45;;;;;;;3.53;1.80;;;11.70;99.90;;;;;;5057220;28;20102;-57
2023/12/24 10:32:11;;;;;;;5.07;2.13;;;11.70;99.90;;;;;;5057379;28;20450;-57
2023/12/24 10:34:38;;;;;;;4.05;2.30;;;11.70;99.90;;;;;;5057569;28;20037;-58
2023/12/24 10:37:26;;;;;;;5.78;2.40;;;11.70;99.90;;;;;;5057314;28;20090;-56
2023/12/24 10:39:52;;;;;;;4.60;2.30;;;11.70;99.90;;;;;;5057481;28;20041;-64
2023/12/24 10:42:17;;;;;;;6.72;2.38;;;11.70;99.90;;;;;;5057219;28;20098;-58
2023/12/24 10:44:43;;;;;;;4.75;2.28;;;11.80;99.90;;;;;;5057374;28;20147;-56
2023/12/24 10:47:09;;;;;;;7.15;2.35;;;11.80;99.90;;;;;;5056785;28;20029;-59
2023/12/24 10:49:35;;;;;;;3.70;2.15;;;11.80;99.90;;;;;;5057067;28;20040;-57
2023/12/24 10:52:01;;;;;;;4.82;1.75;;;11.80;99.90;;;;;;5057381;28;20115;-59
2023/12/24 10:54:27;;;;;;;4.10;1.75;;;11.80;99.90;;;;;;5056315;28;20040;-57
2023/12/24 10:57:05;;;;;;;4.50;1.73;;;11.80;99.90;;;;;;5072876;28;20308;-61
2023/12/24 11:00:15;;;;;;;4.50;1.90;;;11.80;99.90;;;;;;5057100;28;20055;-59
2023/12/24 11:02:49;;;;;;;4.85;2.00;;;11.80;99.90;;;;;;5056949;28;20040;-58
2023/12/24 11:05:40;;;;;;;5.40;1.90;;;11.80;99.90;;;;;;5056962;28;20051;-58
2023/12/24 11:08:26;;;;;;;4.28;1.70;;;11.90;99.90;;;;;;5055996;28;20024;-57
2023/12/24 11:10:56;;;;;;;6.70;1.77;;;11.80;99.90;;;;;;5056729;28;20122;-57
2023/12/24 11:13:34;;;;;;;5.80;1.60;;;11.80;99.90;;;;;;5057031;28;20369;-61
2023/12/24 11:16:02;;;;;;;4.47;1.48;;;11.90;99.90;;;;;;5056777;28;20072;-57
2023/12/24 11:18:46;;;;;;;6.30;1.75;;;11.90;99.90;;;;;;5056700;28;20041;-57
2023/12/24 11:21:19;;;;;;;4.93;1.30;;;11.90;99.90;;;;;;5056452;28;20072;-56
2023/12/24 11:24:14;;;;;;;4.43;1.30;;;12.00;99.90;;;;;;5056932;28;20029;-61
2023/12/24 11:26:58;;;;;;;4.18;1.40;;;12.00;99.90;;;;;;5056807;28;20033;-62
2023/12/24 11:29:47;;;;;;;5.90;1.52;;;12.00;99.90;;;;;;5056376;28;20053;-59
2023/12/24 11:32:30;;;;;;;3.30;1.60;;;12.00;99.90;;;;;;5072433;28;20033;-59
2023/12/24 11:34:58;;;;;;;7.32;1.70;;;12.20;99.90;;;;;;5056771;28;20029;-61
2023/12/24 11:37:31;;;;;;;6.57;1.85;;;12.20;99.90;;;;;;5056543;28;20021;-60
2023/12/24 11:40:07;;;;;;;7.15;2.25;;;12.20;99.90;;;;;;5056719;28;20032;-62
2023/12/24 11:42:46;;;;;;;7.55;2.55;;;12.30;99.90;;;;;;5056491;28;20075;-61
2023/12/24 11:45:31;;;;;;;8.30;2.40;;;12.40;99.90;;;;;;5072432;28;20052;-59
2023/12/24 11:47:57;;;;;;;5.32;2.05;;;12.40;99.90;;;;;;5056693;28;20469;-57
2023/12/24 11:50:24;;;;;;;8.52;2.20;;;12.30;99.90;;;;;;5056444;28;20116;-58
2023/12/24 11:52:50;;;;;;;11.48;3.13;;;12.30;99.90;;;;;;5056359;28;20079;-57
2023/12/24 11:55:20;;;;;;;8.40;2.15;;;12.30;99.90;;;;;;5056407;28;20037;-56
2023/12/24 11:57:48;;;;;;;5.55;2.30;;;12.20;99.90;;;;;;5055690;28;20025;-58
2023/12/24 12:00:25;;;;;;;5.57;1.95;;;12.20;99.90;;;;;;5040859;28;20036;-59
2023/12/24 12:02:59;;;;;;;6.57;2.42;;;12.20;99.90;;;;;;5060465;28;20037;-59
2023/12/24 12:05:25;;;;;;;7.30;2.22;;;12.30;99.90;;;;;;5060218;28;20158;-59
2023/12/24 12:07:52;;;;;;;6.45;2.10;;;12.40;99.90;;;;;;5060166;28;20029;-55
2023/12/24 12:10:18;;;;;;;5.82;2.28;;;12.30;99.90;;;;;;5060083;28;20048;-58
2023/12/24 12:12:44;;;;;;;7.45;1.65;;;12.30;99.90;;;;;;5060408;28;20021;-61
2023/12/24 12:15:14;;;;;;;5.80;2.20;;;12.30;99.90;;;;;;5059806;28;20124;-58
2023/12/24 12:17:40;;;;;;;7.10;2.70;;;12.40;99.90;;;;;;5059986;28;20366;-61
2023/12/24 12:20:06;;;;;;;7.15;2.13;;;12.50;99.90;;;;;;5059256;28;20025;-59
2023/12/24 12:22:32;;;;;;;12.20;2.40;;;12.40;99.90;;;;;;5075841;28;20119;-56
2023/12/24 12:24:58;;;;;;;6.65;2.35;;;12.40;99.90;;;;;;5059800;28;20449;-56
2023/12/24 12:27:25;;;;;;;7.50;2.10;;;12.50;99.90;;;;;;5059786;28;20495;-58
2023/12/24 12:29:51;;;;;;;7.07;1.85;;;12.40;99.90;;;;;;5059371;28;20049;-58
2023/12/24 12:32:17;;;;;;;6.32;2.17;;;12.50;99.90;;;;;;5059548;28;20266;-56
2023/12/24 12:34:43;;;;;;;8.35;1.90;;;12.40;99.90;;;;;;5059577;28;20060;-58
2023/12/24 12:37:09;;;;;;;6.07;1.83;;;12.40;99.90;;;;;;5059588;28;20107;-58
2023/12/24 12:39:36;;;;;;;6.55;1.98;;;12.50;99.90;;;;;;5059600;28;20036;-59
2023/12/24 12:42:04;;;;;;;6.50;2.05;;;12.60;99.90;;;;;;5059625;28;20037;-58
2023/12/24 12:44:30;;;;;;;4.60;1.70;;;12.60;99.90;;;;;;5059463;28;20343;-60
2023/12/24 12:46:56;;;;;;;4.10;2.28;;;12.60;99.90;;;;;;5059420;28;20095;-58